Time;durP1;ratioP1;P1;durP2;ratioP2;P2;SDS_P1;SDS_P2;PMS_P1;PMS_P2;Temp;Humidity;BMP_temperature;BMP_pressure;BME280_temperature;BME280_humidity;BME280_pressure;Samples;Min_cycle;Max_cycle;Signal;HPM_P1;HPM_P2
2022/12/05 00:01:20;;;;;;;33.05;20.13;;;4.60;99.90;;;;;;5000240;28;20095;-56
2022/12/05 00:03:48;;;;;;;35.83;21.17;;;4.60;99.90;;;;;;5008570;28;20045;-59
2022/12/05 00:06:14;;;;;;;36.10;20.85;;;4.60;99.90;;;;;;5028029;28;20040;-57
2022/12/05 00:08:40;;;;;;;33.58;19.95;;;4.60;99.90;;;;;;5029803;28;20057;-59
2022/12/05 00:11:17;;;;;;;36.42;19.73;;;4.60;99.90;;;;;;5030261;28;20048;-59
2022/12/05 00:13:43;;;;;;;33.97;20.73;;;4.70;99.90;;;;;;5028595;28;20084;-59
2022/12/05 00:16:11;;;;;;;35.00;20.23;;;4.70;99.90;;;;;;5029273;28;20094;-58
2022/12/05 00:18:38;;;;;;;35.53;20.05;;;4.70;99.90;;;;;;5037649;28;20056;-59
2022/12/05 00:21:05;;;;;;;33.80;20.45;;;4.70;99.90;;;;;;5025043;28;20175;-58
2022/12/05 00:23:31;;;;;;;34.03;20.27;;;4.70;99.90;;;;;;5029253;28;20163;-59
2022/12/05 00:26:00;;;;;;;37.72;20.83;;;4.70;99.90;;;;;;5026936;28;20037;-57
2022/12/05 00:28:26;;;;;;;36.97;21.27;;;4.70;99.90;;;;;;5030401;28;20963;-56
2022/12/05 00:30:52;;;;;;;38.53;21.73;;;4.70;99.90;;;;;;5029881;28;20045;-59
2022/12/05 00:33:18;;;;;;;36.13;21.75;;;4.70;99.90;;;;;;5032317;28;20057;-58
2022/12/05 00:35:43;;;;;;;40.83;22.92;;;4.80;99.90;;;;;;5029171;28;20052;-59
2022/12/05 00:38:09;;;;;;;40.78;22.75;;;4.80;99.90;;;;;;5029912;28;20040;-60
2022/12/05 00:40:35;;;;;;;41.35;22.48;;;4.80;99.90;;;;;;5032376;28;20091;-59
2022/12/05 00:43:01;;;;;;;41.22;24.13;;;4.80;99.90;;;;;;5036655;28;20688;-58
2022/12/05 00:45:27;;;;;;;40.83;23.40;;;4.80;99.90;;;;;;5026988;28;20143;-58
2022/12/05 00:47:53;;;;;;;40.13;23.23;;;4.90;99.90;;;;;;5028958;28;20495;-56
2022/12/05 00:50:19;;;;;;;41.40;23.85;;;4.80;99.90;;;;;;5029848;28;20136;-59
2022/12/05 00:52:44;;;;;;;47.13;23.88;;;4.80;99.90;;;;;;5031204;28;20092;-58
2022/12/05 00:55:10;;;;;;;44.92;23.30;;;4.80;99.90;;;;;;5028793;28;20096;-59
2022/12/05 00:57:36;;;;;;;40.80;23.13;;;4.90;99.90;;;;;;5023433;28;20094;-59
2022/12/05 01:00:04;;;;;;;46.05;24.05;;;4.80;99.90;;;;;;5028385;28;20045;-59
2022/12/05 01:02:30;;;;;;;41.28;23.80;;;4.90;99.90;;;;;;5027239;28;20895;-57
2022/12/05 01:04:56;;;;;;;39.75;22.17;;;4.80;99.90;;;;;;5022474;28;20064;-59
2022/12/05 01:07:22;;;;;;;40.92;22.17;;;4.90;99.90;;;;;;5026716;28;20041;-56
2022/12/05 01:09:48;;;;;;;38.08;21.48;;;4.90;99.90;;;;;;5030219;28;20549;-59
2022/12/05 01:12:13;;;;;;;36.45;20.30;;;4.90;99.90;;;;;;5026954;28;20103;-59
2022/12/05 01:14:39;;;;;;;33.45;19.92;;;4.90;99.90;;;;;;5028421;28;20045;-59
2022/12/05 01:17:05;;;;;;;35.92;19.00;;;4.90;99.90;;;;;;5000981;28;20041;-59
2022/12/05 01:19:32;;;;;;;34.28;18.83;;;5.00;99.90;;;;;;5017055;28;20041;-59
2022/12/05 01:21:58;;;;;;;34.85;18.17;;;5.10;99.90;;;;;;5028214;28;20136;-59
2022/12/05 01:24:25;;;;;;;32.70;17.45;;;5.00;99.90;;;;;;5026387;28;20131;-59
2022/12/05 01:26:51;;;;;;;32.00;17.38;;;5.10;99.90;;;;;;5030714;28;20045;-59
2022/12/05 01:29:19;;;;;;;28.13;17.60;;;5.10;99.90;;;;;;5028936;28;20049;-58
2022/12/05 01:31:46;;;;;;;29.50;17.73;;;5.10;99.90;;;;;;5029024;28;20064;-58
2022/12/05 01:34:13;;;;;;;26.90;17.02;;;5.10;99.90;;;;;;5026042;28;20495;-59
2022/12/05 01:36:40;;;;;;;25.65;15.90;;;5.10;99.90;;;;;;5027905;28;20045;-56
2022/12/05 01:39:07;;;;;;;26.67;15.98;;;5.10;99.90;;;;;;5025837;28;20511;-57
2022/12/05 01:41:36;;;;;;;28.08;15.85;;;5.20;99.90;;;;;;5026025;28;21028;-59
2022/12/05 01:44:11;;;;;;;23.05;14.75;;;5.20;99.90;;;;;;5025860;28;20076;-56
2022/12/05 01:46:51;;;;;;;25.02;15.00;;;5.20;99.90;;;;;;5026977;28;20045;-58
2022/12/05 01:49:23;;;;;;;24.00;15.13;;;5.20;99.90;;;;;;5027342;28;20049;-56
2022/12/05 01:51:53;;;;;;;20.90;13.82;;;5.20;99.90;;;;;;5029603;28;20053;-60
2022/12/05 01:54:21;;;;;;;22.40;14.20;;;5.30;99.90;;;;;;5029293;28;20186;-58
2022/12/05 01:56:56;;;;;;;21.13;14.13;;;5.30;99.90;;;;;;5025594;28;20057;-58
2022/12/05 01:59:24;;;;;;;19.17;13.73;;;5.30;99.90;;;;;;5030210;28;20065;-59
2022/12/05 02:01:50;;;;;;;23.25;13.88;;;5.30;99.90;;;;;;5031624;28;20133;-59
2022/12/05 02:04:16;;;;;;;23.90;13.85;;;5.30;99.90;;;;;;5028661;28;20121;-59
2022/12/05 02:06:42;;;;;;;19.38;12.90;;;5.30;99.90;;;;;;5025321;28;20081;-58
2022/12/05 02:09:08;;;;;;;23.27;13.00;;;5.40;99.90;;;;;;5030437;28;20048;-59
2022/12/05 02:11:41;;;;;;;22.20;12.85;;;5.40;99.90;;;;;;5030779;28;20539;-58
2022/12/05 02:14:31;;;;;;;18.58;11.52;;;5.30;99.90;;;;;;5027304;28;20468;-59
2022/12/05 02:17:08;;;;;;;17.40;12.10;;;5.40;99.90;;;;;;5030641;28;20496;-59
2022/12/05 02:19:47;;;;;;;19.70;11.90;;;5.30;99.90;;;;;;5024921;28;20508;-58
2022/12/05 02:22:49;;;;;;;18.40;11.88;;;5.40;99.90;;;;;;5030285;28;20052;-60
2022/12/05 02:25:33;;;;;;;18.77;11.25;;;5.30;99.90;;;;;;5025580;28;20041;-58
2022/12/05 02:28:36;;;;;;;16.02;11.27;;;5.30;99.90;;;;;;5025853;28;20051;-59
2022/12/05 02:31:26;;;;;;;17.52;11.30;;;5.30;99.90;;;;;;5021871;28;20045;-60
2022/12/05 02:34:04;;;;;;;17.65;11.20;;;5.30;99.90;;;;;;5024996;28;22352;-58
2022/12/05 02:36:42;;;;;;;14.00;10.75;;;5.30;99.90;;;;;;5023529;28;20045;-60
2022/12/05 02:39:21;;;;;;;19.00;10.98;;;5.30;99.90;;;;;;5026658;28;20112;-60
2022/12/05 02:41:54;;;;;;;17.83;11.30;;;5.30;99.90;;;;;;5026876;28;20371;-59
2022/12/05 02:44:58;;;;;;;19.33;11.18;;;5.30;99.90;;;;;;5027736;28;20053;-59
2022/12/05 02:47:28;;;;;;;19.00;10.73;;;5.30;99.90;;;;;;4985599;28;20046;-59
2022/12/05 02:49:56;;;;;;;18.35;11.52;;;5.30;99.90;;;;;;5017397;28;20939;-59
2022/12/05 02:52:23;;;;;;;17.25;10.80;;;5.30;99.90;;;;;;5031616;28;20132;-59
2022/12/05 02:54:52;;;;;;;20.40;10.77;;;5.30;99.90;;;;;;5027277;28;20063;-59
2022/12/05 02:57:20;;;;;;;16.83;10.27;;;5.30;99.90;;;;;;5028573;28;20045;-59
2022/12/05 02:59:46;;;;;;;15.88;10.50;;;5.30;99.90;;;;;;5025914;28;20048;-59
2022/12/05 03:02:29;;;;;;;15.57;10.30;;;5.30;99.90;;;;;;5026978;28;20072;-59
2022/12/05 03:05:03;;;;;;;17.15;10.60;;;5.30;99.90;;;;;;5025029;28;20049;-60
2022/12/05 03:07:30;;;;;;;17.20;10.20;;;5.20;99.90;;;;;;5028109;28;20049;-58
2022/12/05 03:10:03;;;;;;;16.15;10.18;;;5.20;99.90;;;;;;5029758;28;20448;-57
2022/12/05 03:12:34;;;;;;;21.05;10.35;;;5.20;99.90;;;;;;5031899;28;20052;-59
2022/12/05 03:15:19;;;;;;;16.58;10.30;;;5.20;99.90;;;;;;5030908;28;20073;-57
2022/12/05 03:17:58;;;;;;;18.25;10.20;;;5.30;99.90;;;;;;5028908;28;20044;-59
2022/12/05 03:20:32;;;;;;;18.50;9.90;;;5.30;99.90;;;;;;5028951;28;20395;-59
2022/12/05 03:23:17;;;;;;;16.30;9.63;;;5.30;99.90;;;;;;5035203;28;20041;-58
2022/12/05 03:25:54;;;;;;;13.23;9.38;;;5.20;99.90;;;;;;5028471;28;20046;-59
2022/12/05 03:28:54;;;;;;;14.45;9.70;;;5.30;99.90;;;;;;5022287;28;20053;-59
2022/12/05 03:31:32;;;;;;;15.25;10.00;;;5.20;99.90;;;;;;5015324;28;20053;-59
2022/12/05 03:33:59;;;;;;;18.30;10.18;;;5.20;99.90;;;;;;5025589;28;20049;-58
2022/12/05 03:36:35;;;;;;;18.10;9.90;;;5.20;99.90;;;;;;5026185;28;20080;-59
2022/12/05 03:39:12;;;;;;;21.13;10.50;;;5.20;99.90;;;;;;5030283;28;20045;-60
2022/12/05 03:42:00;;;;;;;17.90;10.52;;;5.20;99.90;;;;;;5030410;28;20053;-59
2022/12/05 03:44:41;;;;;;;17.25;10.52;;;5.20;99.90;;;;;;5027520;28;20041;-59
2022/12/05 03:47:22;;;;;;;18.73;10.65;;;5.20;99.90;;;;;;5028786;28;20134;-58
2022/12/05 03:49:58;;;;;;;16.85;10.15;;;5.20;99.90;;;;;;5029142;28;20114;-58
2022/12/05 03:52:33;;;;;;;18.38;11.07;;;5.20;99.90;;;;;;5035389;28;20084;-59
2022/12/05 03:55:03;;;;;;;20.83;10.85;;;5.20;99.90;;;;;;5032365;28;20053;-59
2022/12/05 03:57:42;;;;;;;18.52;11.13;;;5.20;99.90;;;;;;5029102;28;20048;-58
2022/12/05 04:00:15;;;;;;;18.92;10.73;;;5.20;99.90;;;;;;5026545;28;20120;-58
2022/12/05 04:03:04;;;;;;;23.83;11.57;;;5.20;99.90;;;;;;5031216;28;20098;-56
2022/12/05 04:05:38;;;;;;;20.35;11.25;;;5.20;99.90;;;;;;5019176;28;20084;-59
2022/12/05 04:08:10;;;;;;;24.42;11.75;;;5.20;99.90;;;;;;5028776;28;20527;-59
2022/12/05 04:10:47;;;;;;;20.00;12.02;;;5.20;99.90;;;;;;5031768;28;20473;-59
2022/12/05 04:13:40;;;;;;;21.52;11.45;;;5.20;99.90;;;;;;5035189;28;20056;-58
2022/12/05 04:19:23;;;;;;;17.73;11.48;;;5.20;99.90;;;;;;5025872;28;20986;-59
2022/12/05 04:21:53;;;;;;;21.80;11.27;;;5.20;99.90;;;;;;5030525;28;20461;-57
2022/12/05 04:27:14;;;;;;;16.95;10.65;;;5.20;99.90;;;;;;5032656;28;20454;-59
2022/12/05 04:30:01;;;;;;;22.55;11.43;;;5.20;99.90;;;;;;5028272;28;20103;-59
2022/12/05 04:32:33;;;;;;;19.63;11.85;;;5.20;99.90;;;;;;5029875;28;20045;-59
2022/12/05 04:35:05;;;;;;;;;;;5.20;99.90;;;;;;5026798;28;20053;-59
2022/12/05 04:37:37;;;;;;;20.45;11.10;;;5.20;99.90;;;;;;5026092;28;19924;-58
2022/12/05 04:40:14;;;;;;;20.00;10.82;;;5.20;99.90;;;;;;5028301;28;20044;-56
2022/12/05 04:42:42;;;;;;;21.38;11.65;;;5.30;99.90;;;;;;5031068;28;20041;-59
2022/12/05 04:45:11;;;;;;;20.77;11.25;;;5.20;99.90;;;;;;5025203;28;20106;-57
2022/12/05 04:47:45;;;;;;;18.05;10.77;;;5.30;99.90;;;;;;5030328;28;20053;-58
2022/12/05 04:50:13;;;;;;;24.23;11.77;;;5.30;99.90;;;;;;5027785;28;25001;-59
2022/12/05 04:52:41;;;;;;;21.38;11.85;;;5.20;99.90;;;;;;5027647;28;20040;-59
2022/12/05 04:55:16;;;;;;;19.10;11.13;;;5.30;99.90;;;;;;5029834;28;20049;-59
2022/12/05 04:58:08;;;;;;;16.45;10.75;;;5.30;99.90;;;;;;5023256;28;20507;-59
2022/12/05 05:00:53;;;;;;;21.10;11.70;;;5.30;99.90;;;;;;5028218;28;20940;-59
2022/12/05 05:03:33;;;;;;;20.70;10.48;;;5.30;99.90;;;;;;5028713;28;20063;-57
2022/12/05 05:06:00;;;;;;;21.40;11.75;;;5.30;99.90;;;;;;5029084;28;20047;-59
2022/12/05 05:08:28;;;;;;;20.45;11.63;;;5.30;99.90;;;;;;5030013;28;20613;-59
2022/12/05 05:11:05;;;;;;;21.92;11.98;;;5.30;99.90;;;;;;5035383;28;20488;-59
2022/12/05 05:13:31;;;;;;;20.92;10.52;;;5.30;99.90;;;;;;5029732;28;20053;-59
2022/12/05 05:15:57;;;;;;;19.38;11.73;;;5.30;99.90;;;;;;5030005;28;20573;-58
2022/12/05 05:18:23;;;;;;;23.92;12.35;;;5.30;99.90;;;;;;5026619;28;20650;-58
2022/12/05 05:20:48;;;;;;;21.30;12.20;;;5.30;99.90;;;;;;5028013;28;20532;-60
2022/12/05 05:23:14;;;;;;;21.20;11.38;;;5.30;99.90;;;;;;5025853;28;20045;-58
2022/12/05 05:25:40;;;;;;;21.75;11.48;;;5.30;99.90;;;;;;5026520;28;20055;-58
2022/12/05 05:28:06;;;;;;;19.63;12.02;;;5.30;99.90;;;;;;5027915;28;20159;-59
2022/12/05 05:30:31;;;;;;;21.52;11.57;;;5.30;99.90;;;;;;5029591;28;20156;-58
2022/12/05 05:32:59;;;;;;;22.33;11.90;;;5.30;99.90;;;;;;5029027;28;20072;-58
2022/12/05 05:35:25;;;;;;;22.85;11.88;;;5.30;99.90;;;;;;5026384;28;20132;-59
2022/12/05 05:37:50;;;;;;;26.10;11.82;;;5.30;99.90;;;;;;5026118;28;20071;-59
2022/12/05 05:40:17;;;;;;;18.65;11.25;;;5.30;99.90;;;;;;5028382;28;20072;-59
2022/12/05 05:42:48;;;;;;;21.02;11.52;;;5.30;99.90;;;;;;5029843;28;20059;-58
2022/12/05 05:45:15;;;;;;;19.88;11.40;;;5.30;99.90;;;;;;5026409;28;20044;-59
2022/12/05 05:47:42;;;;;;;21.75;11.60;;;5.30;99.90;;;;;;5027838;28;20090;-58
2022/12/05 05:50:08;;;;;;;18.52;11.25;;;5.30;99.90;;;;;;5027065;28;20130;-58
2022/12/05 05:52:36;;;;;;;19.02;10.38;;;5.30;99.90;;;;;;5027801;28;20049;-59
2022/12/05 05:55:04;;;;;;;22.55;11.18;;;5.30;99.90;;;;;;5028433;28;20439;-59
2022/12/05 05:57:30;;;;;;;18.98;10.82;;;5.30;99.90;;;;;;5030786;28;20091;-58
2022/12/05 05:59:55;;;;;;;19.50;11.20;;;5.30;99.90;;;;;;5024935;28;20045;-58
2022/12/05 06:02:22;;;;;;;20.65;11.15;;;5.30;99.90;;;;;;5029415;28;20045;-59
2022/12/05 06:04:47;;;;;;;19.55;11.40;;;5.40;99.90;;;;;;5027399;28;20850;-58
2022/12/05 06:07:13;;;;;;;23.00;11.98;;;5.30;99.90;;;;;;5031354;28;20049;-58
2022/12/05 06:09:39;;;;;;;23.60;10.38;;;5.30;99.90;;;;;;5021733;28;20053;-58
2022/12/05 06:12:05;;;;;;;23.67;11.02;;;5.30;99.90;;;;;;5030017;28;20380;-59
2022/12/05 06:14:31;;;;;;;23.23;11.52;;;5.30;99.90;;;;;;5027604;28;20045;-59
2022/12/05 06:16:56;;;;;;;21.77;10.98;;;5.30;99.90;;;;;;5020676;28;20893;-59
2022/12/05 06:19:22;;;;;;;21.90;10.95;;;5.30;99.90;;;;;;5026863;28;20041;-58
2022/12/05 06:21:49;;;;;;;19.38;10.18;;;5.30;99.90;;;;;;5022860;28;20056;-59
2022/12/05 06:24:16;;;;;;;20.48;10.63;;;5.30;99.90;;;;;;5025010;28;20171;-58
2022/12/05 06:26:42;;;;;;;17.08;10.32;;;5.30;99.90;;;;;;5025787;28;20160;-59
2022/12/05 06:29:08;;;;;;;21.50;10.18;;;5.30;99.90;;;;;;5026309;28;20076;-58
2022/12/05 06:31:34;;;;;;;22.15;10.77;;;5.30;99.90;;;;;;5019068;28;21385;-59
2022/12/05 06:34:01;;;;;;;22.30;10.70;;;5.40;99.90;;;;;;5016753;28;20052;-60
2022/12/05 06:36:28;;;;;;;21.10;10.68;;;5.30;99.90;;;;;;5021384;28;20045;-57
2022/12/05 06:38:56;;;;;;;22.02;11.05;;;5.30;99.90;;;;;;5020719;28;20143;-58
2022/12/05 06:41:26;;;;;;;20.67;10.50;;;5.30;99.90;;;;;;5019405;28;20133;-59
2022/12/05 06:43:53;;;;;;;17.83;10.27;;;5.30;99.90;;;;;;5025224;28;20048;-58
2022/12/05 06:46:20;;;;;;;20.60;10.57;;;5.30;99.90;;;;;;5023913;28;20099;-60
2022/12/05 06:48:46;;;;;;;24.60;11.20;;;5.30;99.90;;;;;;5031841;28;20502;-58
2022/12/05 06:51:15;;;;;;;21.23;10.82;;;5.40;99.90;;;;;;5034099;28;20037;-59
2022/12/05 06:53:41;;;;;;;24.55;11.52;;;5.30;99.90;;;;;;5028657;28;20411;-59
2022/12/05 06:56:12;;;;;;;23.70;11.30;;;5.30;99.90;;;;;;5024492;28;20061;-59
2022/12/05 06:58:40;;;;;;;20.60;11.35;;;5.30;99.90;;;;;;5024118;28;20550;-59
2022/12/05 07:03:59;;;;;;;24.77;10.75;;;5.30;99.90;;;;;;5025143;28;20045;-59
2022/12/05 07:06:26;;;;;;;20.08;10.55;;;5.30;99.90;;;;;;5025074;28;20126;-59
2022/12/05 07:08:52;;;;;;;25.40;10.73;;;5.30;99.90;;;;;;5024506;28;21883;-59
2022/12/05 07:11:18;;;;;;;24.80;11.35;;;5.30;99.90;;;;;;5026607;28;20051;-58
2022/12/05 07:13:43;;;;;;;20.30;11.15;;;5.40;99.90;;;;;;5024756;28;20041;-53
2022/12/05 07:16:09;;;;;;;26.83;10.27;;;5.40;99.90;;;;;;5029504;28;20036;-53
2022/12/05 07:18:35;;;;;;;20.75;10.88;;;5.40;99.90;;;;;;5034591;28;20043;-52
2022/12/05 07:21:04;;;;;;;23.60;10.65;;;5.40;99.90;;;;;;5030545;28;20048;-53
2022/12/05 07:23:31;;;;;;;20.17;10.30;;;5.40;99.90;;;;;;5032302;28;20081;-54
2022/12/05 07:25:56;;;;;;;18.15;9.68;;;5.40;99.90;;;;;;5034646;28;20049;-51
2022/12/05 07:28:23;;;;;;;20.45;10.07;;;5.40;99.90;;;;;;5034273;28;20049;-53
2022/12/05 07:31:02;;;;;;;26.20;10.52;;;5.40;99.90;;;;;;5035000;28;20037;-51
2022/12/05 07:33:28;;;;;;;19.77;9.48;;;5.40;99.90;;;;;;5032217;28;20046;-50
2022/12/05 07:36:03;;;;;;;21.92;10.20;;;5.40;99.90;;;;;;5037976;28;20435;-52
2022/12/05 07:38:29;;;;;;;26.55;9.45;;;5.40;99.90;;;;;;5035677;28;20045;-53
2022/12/05 07:40:55;;;;;;;22.25;9.65;;;5.40;99.90;;;;;;5033135;28;20118;-54
2022/12/05 07:43:22;;;;;;;19.60;9.93;;;5.40;99.90;;;;;;5032847;28;20040;-51
2022/12/05 07:45:47;;;;;;;21.98;9.10;;;5.40;99.90;;;;;;5032555;28;20399;-51
2022/12/05 07:48:13;;;;;;;20.73;9.52;;;5.50;99.90;;;;;;5029554;28;20049;-51
2022/12/05 07:50:39;;;;;;;20.42;9.43;;;5.40;99.90;;;;;;5032862;28;20045;-53
2022/12/05 07:53:05;;;;;;;19.98;8.57;;;5.50;99.90;;;;;;5033290;28;20090;-53
2022/12/05 07:55:31;;;;;;;20.13;8.10;;;5.40;99.90;;;;;;5032738;28;20111;-52
2022/12/05 07:57:56;;;;;;;19.13;9.43;;;5.50;99.90;;;;;;5034245;28;20040;-52
2022/12/05 08:00:22;;;;;;;18.42;8.55;;;5.40;99.90;;;;;;5033573;28;20116;-49
2022/12/05 08:02:48;;;;;;;16.52;8.68;;;5.50;99.90;;;;;;5036278;28;20053;-54
2022/12/05 08:05:14;;;;;;;21.83;8.98;;;5.50;99.90;;;;;;5033040;28;20056;-49
2022/12/05 08:07:40;;;;;;;18.77;8.93;;;5.50;99.90;;;;;;5030750;28;20045;-53
2022/12/05 08:10:07;;;;;;;23.13;8.80;;;5.50;99.90;;;;;;5031863;28;20079;-51
2022/12/05 08:12:33;;;;;;;20.52;8.27;;;5.50;99.90;;;;;;5033931;28;20046;-53
2022/12/05 08:14:59;;;;;;;14.95;8.73;;;5.60;99.90;;;;;;5034926;28;20041;-52
2022/12/05 08:17:25;;;;;;;16.42;8.30;;;5.60;99.90;;;;;;5032454;28;20037;-52
2022/12/05 08:19:51;;;;;;;16.88;8.38;;;5.50;99.90;;;;;;5030941;28;20134;-54
2022/12/05 08:22:17;;;;;;;18.55;8.75;;;5.50;99.90;;;;;;5034948;28;20073;-50
2022/12/05 08:24:42;;;;;;;17.02;8.32;;;5.50;99.90;;;;;;5035670;28;20045;-51
2022/12/05 08:27:08;;;;;;;19.88;8.93;;;5.50;99.90;;;;;;5034350;28;20051;-53
2022/12/05 08:29:34;;;;;;;23.42;9.40;;;5.50;99.90;;;;;;5032900;28;20407;-51
2022/12/05 08:32:00;;;;;;;18.88;8.85;;;5.50;99.90;;;;;;5031497;28;20045;-52
2022/12/05 08:34:26;;;;;;;16.13;8.70;;;5.50;99.90;;;;;;5030589;28;20041;-52
2022/12/05 08:36:52;;;;;;;16.90;9.60;;;5.50;99.90;;;;;;5032027;28;20037;-50
2022/12/05 08:39:18;;;;;;;18.90;9.43;;;5.50;99.90;;;;;;5033986;28;20408;-53
2022/12/05 08:41:46;;;;;;;17.50;8.93;;;5.50;99.90;;;;;;5032128;28;20049;-53
2022/12/05 08:44:17;;;;;;;14.95;8.85;;;5.50;99.90;;;;;;5038358;28;20049;-51
2022/12/05 08:46:45;;;;;;;16.27;8.85;;;5.50;99.90;;;;;;5030183;28;20052;-54
2022/12/05 08:49:12;;;;;;;20.58;9.02;;;5.50;99.90;;;;;;5029978;28;20601;-54
2022/12/05 08:51:38;;;;;;;14.57;9.48;;;5.50;99.90;;;;;;5031125;28;20087;-52
2022/12/05 08:54:05;;;;;;;23.92;9.68;;;5.50;99.90;;;;;;5031905;28;20036;-54
2022/12/05 08:56:31;;;;;;;21.23;8.88;;;5.50;99.90;;;;;;5032926;28;20056;-51
2022/12/05 08:58:58;;;;;;;17.15;8.77;;;5.50;99.90;;;;;;5029187;28;20047;-52
2022/12/05 09:01:29;;;;;;;16.10;8.45;;;5.50;99.90;;;;;;5032426;28;20056;-53
2022/12/05 09:03:55;;;;;;;17.45;8.45;;;5.50;99.90;;;;;;5029691;28;20051;-53
2022/12/05 09:06:23;;;;;;;18.45;9.20;;;5.50;99.90;;;;;;5032318;28;20068;-51
2022/12/05 09:08:53;;;;;;;17.27;9.65;;;5.50;99.90;;;;;;5032821;28;20080;-53
2022/12/05 09:11:22;;;;;;;16.48;9.20;;;5.50;99.90;;;;;;5029881;28;20128;-51
2022/12/05 09:13:49;;;;;;;19.45;9.38;;;5.50;99.90;;;;;;5031243;28;20041;-51
2022/12/05 09:16:21;;;;;;;20.85;9.48;;;5.60;99.90;;;;;;5031306;28;20475;-53
2022/12/05 09:18:48;;;;;;;20.38;9.23;;;5.50;99.90;;;;;;5030341;28;21014;-52
2022/12/05 09:21:17;;;;;;;19.90;9.00;;;5.50;99.90;;;;;;5030521;28;20040;-53
2022/12/05 09:23:43;;;;;;;21.58;9.68;;;5.50;99.90;;;;;;5021505;28;20056;-53
2022/12/05 09:26:12;;;;;;;22.20;10.10;;;5.50;99.90;;;;;;5031878;28;20142;-53
2022/12/05 09:28:38;;;;;;;25.23;10.38;;;5.50;99.90;;;;;;5031688;28;20049;-50
2022/12/05 09:31:08;;;;;;;22.95;9.60;;;5.50;99.90;;;;;;5029540;28;20055;-50
2022/12/05 09:33:36;;;;;;;24.70;9.45;;;5.50;99.90;;;;;;5031220;28;20063;-52
2022/12/05 09:36:07;;;;;;;22.85;11.07;;;5.50;99.90;;;;;;5030731;28;20048;-53
2022/12/05 09:38:33;;;;;;;22.48;10.57;;;5.50;99.90;;;;;;5030895;28;20044;-50
2022/12/05 09:42:03;;;;;;;22.48;10.68;;;5.60;99.90;;;;;;5030980;28;20403;-52
2022/12/05 09:44:14;;;;;;;20.05;10.80;;;5.60;99.90;;;;;;5031143;28;20044;-53
2022/12/05 09:46:49;;;;;;;21.30;10.27;;;5.60;99.90;;;;;;5032612;28;20050;-53
2022/12/05 09:49:14;;;;;;;21.63;11.32;;;5.60;99.90;;;;;;5029619;28;20041;-53
2022/12/05 09:51:45;;;;;;;27.55;11.73;;;5.60;99.90;;;;;;5031641;28;20064;-51
2022/12/05 09:54:12;;;;;;;24.40;11.45;;;5.60;99.90;;;;;;5030179;28;20049;-53
2022/12/05 09:56:40;;;;;;;23.73;11.18;;;5.60;99.90;;;;;;5032960;28;20065;-54
2022/12/05 09:59:12;;;;;;;30.20;10.85;;;5.60;99.90;;;;;;5029505;28;20041;-53
2022/12/05 10:01:41;;;;;;;24.00;10.85;;;5.60;99.90;;;;;;5030773;28;20403;-52
2022/12/05 10:04:38;;;;;;;25.90;11.88;;;5.60;99.90;;;;;;5028733;28;20447;-51
2022/12/05 10:07:28;;;;;;;24.25;11.18;;;5.60;99.90;;;;;;5030975;28;20050;-51
2022/12/05 10:10:13;;;;;;;23.52;11.90;;;5.60;99.90;;;;;;5029744;28;20089;-53
2022/12/05 10:13:05;;;;;;;26.92;12.15;;;5.60;99.90;;;;;;5029534;28;20045;-53
2022/12/05 10:15:38;;;;;;;23.77;11.45;;;5.60;99.90;;;;;;4996555;28;20116;-52
2022/12/05 10:18:18;;;;;;;26.50;11.35;;;5.50;99.90;;;;;;5029278;28;20044;-52
2022/12/05 10:20:51;;;;;;;26.92;11.50;;;5.50;99.90;;;;;;5029311;28;20064;-52
2022/12/05 10:23:23;;;;;;;24.25;11.75;;;5.50;99.90;;;;;;5029638;28;20049;-52
2022/12/05 10:25:54;;;;;;;25.23;11.57;;;5.50;99.90;;;;;;5030822;28;20072;-52
2022/12/05 10:28:42;;;;;;;24.63;11.60;;;5.60;99.90;;;;;;5031182;28;20045;-50
2022/12/05 10:31:12;;;;;;;19.92;11.43;;;5.50;99.90;;;;;;5031227;28;20113;-51
2022/12/05 10:33:48;;;;;;;29.55;12.00;;;5.60;99.90;;;;;;5016052;28;20109;-52
2022/12/05 10:36:15;;;;;;;24.35;10.75;;;5.50;99.90;;;;;;5031196;28;20044;-51
2022/12/05 10:38:43;;;;;;;32.85;11.98;;;5.60;99.90;;;;;;5030867;28;20079;-53
2022/12/05 10:41:12;;;;;;;23.08;10.73;;;5.50;99.90;;;;;;5031293;28;20052;-53
2022/12/05 10:43:44;;;;;;;26.52;11.15;;;5.60;99.90;;;;;;5029907;28;20131;-53
2022/12/05 10:46:12;;;;;;;26.58;11.68;;;5.50;99.90;;;;;;5029792;28;20052;-51
2022/12/05 10:48:40;;;;;;;26.60;11.52;;;5.50;99.90;;;;;;5030037;28;20515;-50
2022/12/05 10:51:11;;;;;;;27.35;11.73;;;5.50;99.90;;;;;;5030606;28;20455;-53
2022/12/05 10:53:43;;;;;;;24.00;11.20;;;5.50;99.90;;;;;;5029894;28;20057;-52
2022/12/05 10:56:44;;;;;;;24.67;11.02;;;5.50;99.90;;;;;;5028475;28;20061;-52
2022/12/05 10:59:15;;;;;;;19.83;10.75;;;5.50;99.90;;;;;;5044063;28;20041;-51
2022/12/05 11:01:53;;;;;;;23.35;10.45;;;5.50;99.90;;;;;;5029091;28;20049;-53
2022/12/05 11:04:23;;;;;;;21.15;10.32;;;5.50;99.90;;;;;;5030413;28;20063;-53
2022/12/05 11:07:11;;;;;;;21.92;9.63;;;5.50;99.90;;;;;;5030060;28;20041;-53
2022/12/05 11:09:38;;;;;;;21.83;8.85;;;5.50;99.90;;;;;;4991876;28;20066;-52
2022/12/05 11:12:34;;;;;;;18.67;9.02;;;5.50;99.90;;;;;;5029306;28;20434;-49
2022/12/05 11:15:15;;;;;;;22.23;8.80;;;5.50;99.90;;;;;;5031303;28;20044;-52
2022/12/05 11:17:41;;;;;;;17.15;8.93;;;5.50;99.90;;;;;;5027522;28;20037;-54
2022/12/05 11:20:16;;;;;;;18.98;8.75;;;5.50;99.90;;;;;;5033750;28;20041;-52
2022/12/05 11:22:43;;;;;;;17.50;7.93;;;5.50;99.90;;;;;;5027737;28;20101;-53
2022/12/05 11:25:32;;;;;;;21.75;9.07;;;5.60;99.90;;;;;;5030901;28;20052;-51
2022/12/05 11:28:19;;;;;;;17.17;8.77;;;5.50;99.90;;;;;;5018062;28;20049;-49
2022/12/05 11:31:13;;;;;;;14.63;8.30;;;5.50;99.90;;;;;;5028354;28;20373;-50
2022/12/05 11:33:39;;;;;;;16.10;7.43;;;5.50;99.90;;;;;;5028729;28;20175;-52
2022/12/05 11:36:22;;;;;;;15.88;7.60;;;5.50;99.90;;;;;;5032425;28;20760;-50
2022/12/05 11:38:48;;;;;;;18.60;7.30;;;5.50;99.90;;;;;;5032763;28;20051;-52
2022/12/05 11:41:36;;;;;;;18.05;8.13;;;5.50;99.90;;;;;;5030684;28;20403;-51
2022/12/05 11:44:17;;;;;;;17.55;7.43;;;5.50;99.90;;;;;;5032835;28;20408;-50
2022/12/05 11:47:06;;;;;;;14.40;6.88;;;5.50;99.90;;;;;;5031912;28;20055;-52
2022/12/05 11:49:51;;;;;;;13.90;6.78;;;5.50;99.90;;;;;;5014279;28;20061;-52
2022/12/05 11:52:55;;;;;;;12.77;6.40;;;5.50;99.90;;;;;;5034443;28;20130;-50
2022/12/05 11:55:29;;;;;;;13.98;6.70;;;5.50;99.90;;;;;;5032506;28;20396;-52
2022/12/05 11:58:03;;;;;;;16.08;6.28;;;5.50;99.90;;;;;;5030406;28;20052;-53
2022/12/05 12:00:52;;;;;;;13.90;6.00;;;5.50;99.90;;;;;;5033000;28;20842;-51
2022/12/05 12:03:42;;;;;;;13.77;6.22;;;5.50;99.90;;;;;;5031909;28;20048;-54
2022/12/05 12:06:36;;;;;;;15.23;6.38;;;5.50;99.90;;;;;;5028879;28;20087;-51
2022/12/05 12:09:23;;;;;;;11.95;5.95;;;5.50;99.90;;;;;;5031610;28;20053;-50
2022/12/05 12:12:10;;;;;;;10.10;5.72;;;5.40;99.90;;;;;;5033138;28;20053;-53
2022/12/05 12:15:00;;;;;;;11.15;5.95;;;5.50;99.90;;;;;;5031798;28;20491;-53
2022/12/05 12:17:45;;;;;;;12.20;5.90;;;5.40;99.90;;;;;;5026366;28;20049;-50
2022/12/05 12:20:17;;;;;;;11.63;6.30;;;5.50;99.90;;;;;;5025360;28;20077;-50
2022/12/05 12:22:51;;;;;;;15.82;6.60;;;5.50;99.90;;;;;;5030217;28;20460;-51
2022/12/05 12:25:28;;;;;;;8.85;5.72;;;5.40;99.90;;;;;;5034741;28;20056;-50
2022/12/05 12:27:57;;;;;;;11.52;6.20;;;5.50;99.90;;;;;;5030172;28;20063;-52
2022/12/05 12:30:33;;;;;;;11.25;6.75;;;5.40;99.90;;;;;;5030310;28;20057;-50
2022/12/05 12:33:15;;;;;;;11.23;5.50;;;5.50;99.90;;;;;;5029701;28;20041;-53
2022/12/05 12:35:53;;;;;;;14.93;6.40;;;5.50;99.90;;;;;;5029264;28;20096;-52
2022/12/05 12:38:57;;;;;;;12.57;5.93;;;5.40;99.90;;;;;;5035660;28;20072;-51
2022/12/05 12:41:40;;;;;;;11.75;5.82;;;5.50;99.90;;;;;;5017929;28;20087;-51
2022/12/05 12:44:36;;;;;;;9.07;5.50;;;5.50;99.90;;;;;;5031323;28;20037;-53
2022/12/05 12:47:09;;;;;;;9.02;5.40;;;5.40;99.90;;;;;;5029287;28;20051;-49
2022/12/05 12:50:01;;;;;;;14.35;5.78;;;5.50;99.90;;;;;;5029835;28;20052;-50
2022/12/05 12:52:38;;;;;;;10.57;5.07;;;5.50;99.90;;;;;;5029463;28;20515;-53
2022/12/05 12:55:33;;;;;;;10.25;4.88;;;5.50;99.90;;;;;;5028247;28;20041;-53
2022/12/05 12:58:27;;;;;;;10.75;5.20;;;5.50;99.90;;;;;;5028243;28;20060;-52
2022/12/05 13:01:02;;;;;;;11.40;4.95;;;5.50;99.90;;;;;;5028318;28;20037;-53
2022/12/05 13:03:52;;;;;;;9.75;5.13;;;5.50;99.90;;;;;;5030703;28;20045;-52
2022/12/05 13:06:32;;;;;;;10.20;4.75;;;5.50;99.90;;;;;;5029473;28;20519;-53
2022/12/05 13:09:03;;;;;;;13.10;5.20;;;5.50;99.90;;;;;;5022545;28;20475;-50
2022/12/05 13:11:36;;;;;;;9.88;4.90;;;5.50;99.90;;;;;;5026668;28;20136;-53
2022/12/05 13:14:03;;;;;;;9.27;5.15;;;5.50;99.90;;;;;;5026142;28;20045;-50
2022/12/05 13:16:39;;;;;;;10.77;5.40;;;5.50;99.90;;;;;;5025428;28;20041;-52